Terminal Aerodrome Forecast
Issued by NWS

Home | Current Version | Previous Version | Text Only | Print | Product List | Glossary On
Versions: 1 2 3 4 5 6 7 8 9 10 11 12 13 14
000
FTUS46 KPDT 231700
TAFDLS
TAF
KDLS 231722Z 2318/2418 31011KT P6SM -SHRA OVC060
     FM240200 30006KT P6SM VCSH BKN060 BKN200
     FM240900 VRB05KT P6SM SCT040 BKN200=

USA.gov is the U.S. government's official web portal to all federal, state and local government web resources and services.